This is the latest recevied weather packets stored in our database for station/object K2RMB. If no packets are shown the sender has not sent any weather packets the latest 1 day(s).
| Time | Temp. | Humidity | Pressure | Rain* | Wind** | Luminosity | Snow |
|---|---|---|---|---|---|---|---|
| 1778001118 | 25.56° C | 40% | 1007.3 hPa | 0 mm | 0.89 m/s, 36° | 867 W/m² | - |
| 1778000815 | 26.11° C | 41% | 1007.3 hPa | 0 mm | 1.79 m/s, 36° | 933 W/m² | - |
| 1778000512 | 25.56° C | 42% | 1007.3 hPa | 0 mm | 1.34 m/s, 18° | 998 W/m² | - |
| 1778000212 | 25° C | 45% | 1007.3 hPa | 0 mm | 1.34 m/s, 6° | 706 W/m² | - |
| 1777999908 | 25.56° C | 41% | 1007.6 hPa | 0 mm | 1.79 m/s, 42° | 318 W/m² | - |
| 1777999604 | 25.56° C | 38% | 1007.6 hPa | 0 mm | 1.34 m/s, 24° | 880 W/m² | - |
| 1777999302 | 25.56° C | 40% | 1008 hPa | 0 mm | 0 m/s | 820 W/m² | - |
| 1777999000 | 25.56° C | 39% | 1008 hPa | 0 mm | 0 m/s | 895 W/m² | - |
| 1777998697 | 25.56° C | 42% | 1008 hPa | 0 mm | 3.13 m/s, 12° | 885 W/m² | - |
| 1777998394 | 25° C | 40% | 1008 hPa | 0 mm | 0.89 m/s, 12° | 832 W/m² | - |
| 1777998092 | 25° C | 40% | 1008 hPa | 0 mm | 1.34 m/s, 42° | 849 W/m² | - |
| 1777997789 | 24.44° C | 43% | 1008 hPa | 0 mm | 1.79 m/s, 30° | 846 W/m² | - |
| 1777997486 | 25° C | 47% | 1008.3 hPa | 0 mm | 1.34 m/s, 24° | 853 W/m² | - |
| 1777997184 | 24.44° C | 41% | 1008.3 hPa | 0 mm | 0.45 m/s, 42° | 819 W/m² | - |
| 1777996881 | 24.44° C | 44% | 1008.3 hPa | 0 mm | 1.34 m/s, 42° | 853 W/m² | - |
| 1777996577 | 23.89° C | 43% | 1008.3 hPa | 0 mm | 1.34 m/s, 42° | 783 W/m² | - |
| 1777996273 | 23.89° C | 46% | 1008.3 hPa | 0 mm | 0.89 m/s, 42° | 400 W/m² | - |
| 1777995969 | 23.33° C | 43% | 1008.3 hPa | 0 mm | 1.34 m/s, 54° | 353 W/m² | - |
| 1777995666 | 23.33° C | 48% | 1008.3 hPa | 0 mm | 0 m/s | 640 W/m² | - |
| 1777995363 | 23.33° C | 43% | 1008.6 hPa | 0 mm | 0.89 m/s, 42° | 344 W/m² | - |
| 1777995061 | 23.33° C | 43% | 1008.6 hPa | 0 mm | 1.79 m/s, 30° | 533 W/m² | - |
| 1777994757 | 23.33° C | 46% | 1009 hPa | 0 mm | 0.89 m/s, 30° | 383 W/m² | - |
| 1777994453 | 22.78° C | 47% | 1009 hPa | 0 mm | 1.34 m/s, 30° | 386 W/m² | - |
| 1777994148 | 22.78° C | 45% | 1009 hPa | 0 mm | 0 m/s | 605 W/m² | - |
| 1777993846 | 22.78° C | 45% | 1009 hPa | 0 mm | 1.34 m/s, 36° | 272 W/m² | - |
* Rain latest hour (hover to see other rain measurements)
** Current wind speed in m/s (hover to see current wind gust speed)